sensor_id;sensor_type;location;lat;lon;timestamp;P1;durP1;ratioP1;P2;durP2;ratioP2
76693;SDS011;65625;52.136;5.424;2022-12-07T00:01:19;6.63;;;2.70;;
76693;SDS011;65625;52.136;5.424;2022-12-07T00:03:48;6.25;;;2.38;;
76693;SDS011;65625;52.136;5.424;2022-12-07T00:06:17;6.13;;;2.70;;
76693;SDS011;65625;52.136;5.424;2022-12-07T00:08:44;5.25;;;2.30;;
76693;SDS011;65625;52.136;5.424;2022-12-07T00:11:13;5.78;;;2.60;;
76693;SDS011;65625;52.136;5.424;2022-12-07T00:13:45;4.85;;;2.30;;
76693;SDS011;65625;52.136;5.424;2022-12-07T00:16:13;7.72;;;2.85;;
76693;SDS011;65625;52.136;5.424;2022-12-07T00:18:42;5.82;;;2.45;;
76693;SDS011;65625;52.136;5.424;2022-12-07T00:21:10;5.85;;;2.60;;
76693;SDS011;65625;52.136;5.424;2022-12-07T00:23:40;6.25;;;2.70;;
76693;SDS011;65625;52.136;5.424;2022-12-07T00:26:12;8.55;;;2.60;;
76693;SDS011;65625;52.136;5.424;2022-12-07T00:28:40;5.10;;;2.35;;
76693;SDS011;65625;52.136;5.424;2022-12-07T00:31:11;5.13;;;2.30;;
76693;SDS011;65625;52.136;5.424;2022-12-07T00:33:39;6.95;;;2.65;;
76693;SDS011;65625;52.136;5.424;2022-12-07T00:36:07;4.50;;;2.20;;
76693;SDS011;65625;52.136;5.424;2022-12-07T00:38:36;4.93;;;2.53;;
76693;SDS011;65625;52.136;5.424;2022-12-07T00:41:05;4.47;;;2.28;;
76693;SDS011;65625;52.136;5.424;2022-12-07T00:43:52;4.53;;;2.35;;
76693;SDS011;65625;52.136;5.424;2022-12-07T00:46:19;5.07;;;2.25;;
76693;SDS011;65625;52.136;5.424;2022-12-07T00:48:47;4.60;;;2.35;;
76693;SDS011;65625;52.136;5.424;2022-12-07T00:51:14;7.53;;;2.55;;
76693;SDS011;65625;52.136;5.424;2022-12-07T00:53:42;6.75;;;3.22;;
76693;SDS011;65625;52.136;5.424;2022-12-07T00:56:13;5.72;;;2.10;;
76693;SDS011;65625;52.136;5.424;2022-12-07T00:58:41;6.80;;;2.45;;
76693;SDS011;65625;52.136;5.424;2022-12-07T01:01:08;11.95;;;2.50;;
76693;SDS011;65625;52.136;5.424;2022-12-07T01:03:36;6.65;;;2.50;;
76693;SDS011;65625;52.136;5.424;2022-12-07T01:06:04;3.67;;;2.13;;
76693;SDS011;65625;52.136;5.424;2022-12-07T01:08:30;4.60;;;2.78;;
76693;SDS011;65625;52.136;5.424;2022-12-07T01:11:02;7.93;;;2.40;;
76693;SDS011;65625;52.136;5.424;2022-12-07T01:13:30;6.50;;;2.53;;
76693;SDS011;65625;52.136;5.424;2022-12-07T01:15:58;8.30;;;2.17;;
76693;SDS011;65625;52.136;5.424;2022-12-07T01:18:26;7.03;;;2.25;;
76693;SDS011;65625;52.136;5.424;2022-12-07T01:20:57;7.57;;;2.42;;
76693;SDS011;65625;52.136;5.424;2022-12-07T01:23:33;7.53;;;2.50;;
76693;SDS011;65625;52.136;5.424;2022-12-07T01:26:02;4.88;;;2.13;;
76693;SDS011;65625;52.136;5.424;2022-12-07T01:28:30;5.72;;;2.08;;
76693;SDS011;65625;52.136;5.424;2022-12-07T01:31:07;6.35;;;2.08;;
76693;SDS011;65625;52.136;5.424;2022-12-07T01:33:42;8.13;;;2.10;;
76693;SDS011;65625;52.136;5.424;2022-12-07T01:36:20;5.35;;;2.00;;
76693;SDS011;65625;52.136;5.424;2022-12-07T01:38:50;4.25;;;1.98;;
76693;SDS011;65625;52.136;5.424;2022-12-07T01:41:20;4.15;;;2.13;;
76693;SDS011;65625;52.136;5.424;2022-12-07T01:46:43;4.32;;;2.10;;
76693;SDS011;65625;52.136;5.424;2022-12-07T01:49:28;6.13;;;1.90;;
76693;SDS011;65625;52.136;5.424;2022-12-07T01:52:28;4.82;;;2.00;;
76693;SDS011;65625;52.136;5.424;2022-12-07T01:54:59;5.32;;;1.80;;
76693;SDS011;65625;52.136;5.424;2022-12-07T01:57:29;7.50;;;2.30;;
76693;SDS011;65625;52.136;5.424;2022-12-07T01:59:58;9.23;;;1.90;;
76693;SDS011;65625;52.136;5.424;2022-12-07T02:02:43;3.22;;;1.50;;
76693;SDS011;65625;52.136;5.424;2022-12-07T02:07:57;7.75;;;1.48;;
76693;SDS011;65625;52.136;5.424;2022-12-07T02:10:26;7.07;;;1.80;;
76693;SDS011;65625;52.136;5.424;2022-12-07T02:12:56;2.58;;;1.33;;
76693;SDS011;65625;52.136;5.424;2022-12-07T02:15:29;6.95;;;1.50;;
76693;SDS011;65625;52.136;5.424;2022-12-07T02:18:20;11.38;;;1.67;;
76693;SDS011;65625;52.136;5.424;2022-12-07T02:20:58;5.25;;;1.65;;
76693;SDS011;65625;52.136;5.424;2022-12-07T02:31:42;4.35;;;1.42;;
76693;SDS011;65625;52.136;5.424;2022-12-07T02:36:53;4.28;;;1.50;;
76693;SDS011;65625;52.136;5.424;2022-12-07T02:39:26;3.97;;;1.83;;
76693;SDS011;65625;52.136;5.424;2022-12-07T02:42:06;5.30;;;1.40;;
76693;SDS011;65625;52.136;5.424;2022-12-07T02:44:39;2.80;;;1.40;;
76693;SDS011;65625;52.136;5.424;2022-12-07T02:47:08;3.53;;;1.70;;
76693;SDS011;65625;52.136;5.424;2022-12-07T02:49:38;5.72;;;1.70;;
76693;SDS011;65625;52.136;5.424;2022-12-07T02:52:06;4.15;;;1.38;;
76693;SDS011;65625;52.136;5.424;2022-12-07T02:54:32;3.38;;;1.17;;
76693;SDS011;65625;52.136;5.424;2022-12-07T02:57:06;3.22;;;1.20;;
76693;SDS011;65625;52.136;5.424;2022-12-07T03:00:00;6.60;;;1.65;;
76693;SDS011;65625;52.136;5.424;2022-12-07T03:02:35;6.43;;;1.60;;
76693;SDS011;65625;52.136;5.424;2022-12-07T03:05:13;3.85;;;1.23;;
76693;SDS011;65625;52.136;5.424;2022-12-07T03:07:57;4.45;;;1.30;;
76693;SDS011;65625;52.136;5.424;2022-12-07T03:13:31;2.30;;;1.33;;
76693;SDS011;65625;52.136;5.424;2022-12-07T03:16:18;3.08;;;1.35;;
76693;SDS011;65625;52.136;5.424;2022-12-07T03:21:40;6.25;;;1.48;;
76693;SDS011;65625;52.136;5.424;2022-12-07T03:24:21;2.95;;;1.30;;
76693;SDS011;65625;52.136;5.424;2022-12-07T03:27:02;3.92;;;1.25;;
76693;SDS011;65625;52.136;5.424;2022-12-07T03:29:39;2.15;;;1.10;;
76693;SDS011;65625;52.136;5.424;2022-12-07T03:32:12;3.35;;;1.10;;
76693;SDS011;65625;52.136;5.424;2022-12-07T03:34:47;2.47;;;1.10;;
76693;SDS011;65625;52.136;5.424;2022-12-07T03:37:24;4.78;;;1.17;;
76693;SDS011;65625;52.136;5.424;2022-12-07T03:39:58;8.65;;;1.50;;
76693;SDS011;65625;52.136;5.424;2022-12-07T03:42:34;2.72;;;0.95;;
76693;SDS011;65625;52.136;5.424;2022-12-07T03:45:01;4.35;;;1.00;;
76693;SDS011;65625;52.136;5.424;2022-12-07T03:47:31;1.83;;;0.75;;
76693;SDS011;65625;52.136;5.424;2022-12-07T03:50:36;2.35;;;0.88;;
76693;SDS011;65625;52.136;5.424;2022-12-07T03:53:24;3.80;;;0.98;;
76693;SDS011;65625;52.136;5.424;2022-12-07T03:56:06;3.22;;;0.93;;
76693;SDS011;65625;52.136;5.424;2022-12-07T03:58:35;3.17;;;1.08;;
76693;SDS011;65625;52.136;5.424;2022-12-07T04:01:02;3.08;;;0.80;;
76693;SDS011;65625;52.136;5.424;2022-12-07T04:03:29;7.32;;;1.15;;
76693;SDS011;65625;52.136;5.424;2022-12-07T04:05:56;4.60;;;1.00;;
76693;SDS011;65625;52.136;5.424;2022-12-07T04:08:24;5.22;;;0.95;;
76693;SDS011;65625;52.136;5.424;2022-12-07T04:10:51;2.30;;;0.80;;
76693;SDS011;65625;52.136;5.424;2022-12-07T04:13:18;9.77;;;1.30;;
76693;SDS011;65625;52.136;5.424;2022-12-07T04:15:44;3.72;;;1.00;;
76693;SDS011;65625;52.136;5.424;2022-12-07T04:18:11;3.00;;;0.95;;
76693;SDS011;65625;52.136;5.424;2022-12-07T04:20:37;3.00;;;1.05;;
76693;SDS011;65625;52.136;5.424;2022-12-07T04:23:04;3.15;;;1.05;;
76693;SDS011;65625;52.136;5.424;2022-12-07T04:25:30;2.78;;;1.20;;
76693;SDS011;65625;52.136;5.424;2022-12-07T04:27:57;2.03;;;0.98;;
76693;SDS011;65625;52.136;5.424;2022-12-07T04:30:23;4.00;;;0.80;;
76693;SDS011;65625;52.136;5.424;2022-12-07T04:32:50;5.70;;;0.90;;
76693;SDS011;65625;52.136;5.424;2022-12-07T04:35:16;5.65;;;0.90;;
76693;SDS011;65625;52.136;5.424;2022-12-07T04:37:43;1.45;;;0.75;;
76693;SDS011;65625;52.136;5.424;2022-12-07T04:40:09;3.58;;;0.90;;
76693;SDS011;65625;52.136;5.424;2022-12-07T04:42:37;4.78;;;1.20;;
76693;SDS011;65625;52.136;5.424;2022-12-07T04:45:04;3.03;;;0.88;;
76693;SDS011;65625;52.136;5.424;2022-12-07T04:47:31;1.85;;;0.63;;
76693;SDS011;65625;52.136;5.424;2022-12-07T04:49:57;1.42;;;0.60;;
76693;SDS011;65625;52.136;5.424;2022-12-07T04:52:24;3.20;;;1.00;;
76693;SDS011;65625;52.136;5.424;2022-12-07T04:54:51;5.82;;;1.00;;
76693;SDS011;65625;52.136;5.424;2022-12-07T04:57:17;5.50;;;1.20;;
76693;SDS011;65625;52.136;5.424;2022-12-07T04:59:44;2.75;;;0.85;;
76693;SDS011;65625;52.136;5.424;2022-12-07T05:02:11;4.20;;;1.10;;
76693;SDS011;65625;52.136;5.424;2022-12-07T05:04:38;5.38;;;1.15;;
76693;SDS011;65625;52.136;5.424;2022-12-07T05:07:04;2.47;;;0.90;;
76693;SDS011;65625;52.136;5.424;2022-12-07T05:09:31;4.82;;;1.20;;
76693;SDS011;65625;52.136;5.424;2022-12-07T05:11:57;5.22;;;1.00;;
76693;SDS011;65625;52.136;5.424;2022-12-07T05:14:24;3.95;;;0.77;;
76693;SDS011;65625;52.136;5.424;2022-12-07T05:16:50;6.35;;;0.77;;
76693;SDS011;65625;52.136;5.424;2022-12-07T05:19:18;5.78;;;1.10;;
76693;SDS011;65625;52.136;5.424;2022-12-07T05:21:45;2.65;;;0.70;;
76693;SDS011;65625;52.136;5.424;2022-12-07T05:24:13;2.25;;;0.95;;
76693;SDS011;65625;52.136;5.424;2022-12-07T05:26:40;3.22;;;0.90;;
76693;SDS011;65625;52.136;5.424;2022-12-07T05:29:07;4.97;;;0.60;;
76693;SDS011;65625;52.136;5.424;2022-12-07T05:31:37;3.90;;;0.60;;
76693;SDS011;65625;52.136;5.424;2022-12-07T05:34:04;2.50;;;0.70;;
76693;SDS011;65625;52.136;5.424;2022-12-07T05:36:30;2.42;;;0.47;;
76693;SDS011;65625;52.136;5.424;2022-12-07T05:38:58;2.63;;;0.80;;
76693;SDS011;65625;52.136;5.424;2022-12-07T05:41:25;3.65;;;0.82;;
76693;SDS011;65625;52.136;5.424;2022-12-07T05:44:10;1.90;;;0.50;;
76693;SDS011;65625;52.136;5.424;2022-12-07T05:46:37;4.70;;;0.70;;
76693;SDS011;65625;52.136;5.424;2022-12-07T05:49:04;7.93;;;1.23;;
76693;SDS011;65625;52.136;5.424;2022-12-07T05:51:30;0.50;;;0.28;;
76693;SDS011;65625;52.136;5.424;2022-12-07T05:53:56;3.92;;;0.60;;
76693;SDS011;65625;52.136;5.424;2022-12-07T05:56:23;5.70;;;0.77;;
76693;SDS011;65625;52.136;5.424;2022-12-07T05:58:50;7.63;;;1.10;;
76693;SDS011;65625;52.136;5.424;2022-12-07T06:01:35;3.20;;;0.68;;
76693;SDS011;65625;52.136;5.424;2022-12-07T06:04:01;1.67;;;0.45;;
76693;SDS011;65625;52.136;5.424;2022-12-07T06:06:28;3.75;;;0.75;;
76693;SDS011;65625;52.136;5.424;2022-12-07T06:08:55;4.53;;;0.52;;
76693;SDS011;65625;52.136;5.424;2022-12-07T06:11:21;3.58;;;0.68;;
76693;SDS011;65625;52.136;5.424;2022-12-07T06:14:06;5.97;;;0.50;;
76693;SDS011;65625;52.136;5.424;2022-12-07T06:16:33;1.23;;;0.40;;
76693;SDS011;65625;52.136;5.424;2022-12-07T06:18:59;1.92;;;0.65;;
76693;SDS011;65625;52.136;5.424;2022-12-07T06:21:26;4.50;;;0.65;;
76693;SDS011;65625;52.136;5.424;2022-12-07T06:23:52;3.92;;;0.55;;
76693;SDS011;65625;52.136;5.424;2022-12-07T06:26:20;3.42;;;0.50;;
76693;SDS011;65625;52.136;5.424;2022-12-07T06:28:49;2.50;;;0.60;;
76693;SDS011;65625;52.136;5.424;2022-12-07T06:31:16;4.40;;;0.45;;
76693;SDS011;65625;52.136;5.424;2022-12-07T06:33:42;2.30;;;0.65;;
76693;SDS011;65625;52.136;5.424;2022-12-07T06:36:09;3.03;;;0.95;;
76693;SDS011;65625;52.136;5.424;2022-12-07T06:38:36;2.83;;;0.63;;
76693;SDS011;65625;52.136;5.424;2022-12-07T06:41:03;2.47;;;0.47;;
76693;SDS011;65625;52.136;5.424;2022-12-07T06:43:30;2.35;;;0.40;;
76693;SDS011;65625;52.136;5.424;2022-12-07T06:45:57;2.55;;;0.60;;
76693;SDS011;65625;52.136;5.424;2022-12-07T06:48:23;2.10;;;0.65;;
76693;SDS011;65625;52.136;5.424;2022-12-07T06:50:50;5.50;;;0.88;;
76693;SDS011;65625;52.136;5.424;2022-12-07T06:53:20;1.55;;;0.50;;
76693;SDS011;65625;52.136;5.424;2022-12-07T06:55:47;2.25;;;0.63;;
76693;SDS011;65625;52.136;5.424;2022-12-07T06:58:14;3.22;;;0.93;;
76693;SDS011;65625;52.136;5.424;2022-12-07T07:00:40;6.18;;;1.17;;
76693;SDS011;65625;52.136;5.424;2022-12-07T07:03:07;4.97;;;1.00;;
76693;SDS011;65625;52.136;5.424;2022-12-07T07:05:33;4.95;;;0.90;;
76693;SDS011;65625;52.136;5.424;2022-12-07T07:08:00;3.58;;;0.93;;
76693;SDS011;65625;52.136;5.424;2022-12-07T07:10:47;8.38;;;1.00;;
76693;SDS011;65625;52.136;5.424;2022-12-07T07:13:14;3.67;;;1.25;;
76693;SDS011;65625;52.136;5.424;2022-12-07T07:15:40;7.28;;;1.27;;
76693;SDS011;65625;52.136;5.424;2022-12-07T07:18:07;2.28;;;1.15;;
76693;SDS011;65625;52.136;5.424;2022-12-07T07:20:34;4.82;;;1.15;;
76693;SDS011;65625;52.136;5.424;2022-12-07T07:23:00;3.03;;;0.90;;
76693;SDS011;65625;52.136;5.424;2022-12-07T07:25:27;4.70;;;1.15;;
76693;SDS011;65625;52.136;5.424;2022-12-07T07:27:53;5.18;;;1.00;;
76693;SDS011;65625;52.136;5.424;2022-12-07T07:30:20;6.22;;;1.50;;
76693;SDS011;65625;52.136;5.424;2022-12-07T07:32:47;5.03;;;1.00;;
76693;SDS011;65625;52.136;5.424;2022-12-07T07:35:14;4.05;;;1.33;;
76693;SDS011;65625;52.136;5.424;2022-12-07T07:37:40;5.85;;;0.90;;
76693;SDS011;65625;52.136;5.424;2022-12-07T07:40:08;2.88;;;1.00;;
76693;SDS011;65625;52.136;5.424;2022-12-07T07:42:35;1.90;;;0.90;;
76693;SDS011;65625;52.136;5.424;2022-12-07T07:45:02;3.30;;;1.00;;
76693;SDS011;65625;52.136;5.424;2022-12-07T07:47:29;8.38;;;1.17;;
76693;SDS011;65625;52.136;5.424;2022-12-07T07:49:55;3.80;;;1.10;;
76693;SDS011;65625;52.136;5.424;2022-12-07T07:52:22;5.88;;;1.73;;
76693;SDS011;65625;52.136;5.424;2022-12-07T07:54:48;2.47;;;1.25;;
76693;SDS011;65625;52.136;5.424;2022-12-07T07:57:15;4.68;;;1.50;;
76693;SDS011;65625;52.136;5.424;2022-12-07T07:59:43;3.22;;;1.10;;
76693;SDS011;65625;52.136;5.424;2022-12-07T08:02:13;4.63;;;1.25;;
76693;SDS011;65625;52.136;5.424;2022-12-07T08:04:41;4.00;;;1.60;;
76693;SDS011;65625;52.136;5.424;2022-12-07T08:07:08;4.55;;;1.60;;
76693;SDS011;65625;52.136;5.424;2022-12-07T08:09:35;1.92;;;1.13;;
76693;SDS011;65625;52.136;5.424;2022-12-07T08:12:01;4.38;;;1.30;;
76693;SDS011;65625;52.136;5.424;2022-12-07T08:14:28;6.40;;;1.55;;
76693;SDS011;65625;52.136;5.424;2022-12-07T08:16:55;5.45;;;1.15;;
76693;SDS011;65625;52.136;5.424;2022-12-07T08:19:21;4.07;;;1.13;;
76693;SDS011;65625;52.136;5.424;2022-12-07T08:21:48;5.30;;;1.48;;
76693;SDS011;65625;52.136;5.424;2022-12-07T08:24:15;4.00;;;1.42;;
76693;SDS011;65625;52.136;5.424;2022-12-07T08:26:42;3.08;;;1.40;;
76693;SDS011;65625;52.136;5.424;2022-12-07T08:29:09;3.50;;;1.70;;
76693;SDS011;65625;52.136;5.424;2022-12-07T08:31:35;3.63;;;1.50;;
76693;SDS011;65625;52.136;5.424;2022-12-07T08:34:02;4.95;;;1.40;;
76693;SDS011;65625;52.136;5.424;2022-12-07T08:36:29;2.95;;;1.30;;
76693;SDS011;65625;52.136;5.424;2022-12-07T08:38:55;2.85;;;1.15;;
76693;SDS011;65625;52.136;5.424;2022-12-07T08:41:41;7.47;;;1.65;;
76693;SDS011;65625;52.136;5.424;2022-12-07T08:44:08;3.45;;;1.02;;
76693;SDS011;65625;52.136;5.424;2022-12-07T08:46:42;2.47;;;1.00;;
76693;SDS011;65625;52.136;5.424;2022-12-07T08:49:18;1.90;;;1.00;;
76693;SDS011;65625;52.136;5.424;2022-12-07T08:51:49;5.32;;;1.48;;
76693;SDS011;65625;52.136;5.424;2022-12-07T08:54:16;6.15;;;1.23;;
76693;SDS011;65625;52.136;5.424;2022-12-07T08:56:44;5.85;;;1.13;;
76693;SDS011;65625;52.136;5.424;2022-12-07T08:59:17;3.95;;;1.30;;
76693;SDS011;65625;52.136;5.424;2022-12-07T09:01:44;3.53;;;0.95;;
76693;SDS011;65625;52.136;5.424;2022-12-07T09:04:11;3.30;;;0.90;;
76693;SDS011;65625;52.136;5.424;2022-12-07T09:06:37;4.85;;;1.05;;
76693;SDS011;65625;52.136;5.424;2022-12-07T09:09:04;5.00;;;1.10;;
76693;SDS011;65625;52.136;5.424;2022-12-07T09:11:32;5.72;;;1.00;;
76693;SDS011;65625;52.136;5.424;2022-12-07T09:13:59;4.47;;;0.85;;
76693;SDS011;65625;52.136;5.424;2022-12-07T09:16:25;7.35;;;1.20;;
76693;SDS011;65625;52.136;5.424;2022-12-07T09:18:52;6.32;;;0.95;;
76693;SDS011;65625;52.136;5.424;2022-12-07T09:21:19;2.33;;;0.90;;
76693;SDS011;65625;52.136;5.424;2022-12-07T09:23:45;7.57;;;1.17;;
76693;SDS011;65625;52.136;5.424;2022-12-07T09:26:12;3.25;;;1.02;;
76693;SDS011;65625;52.136;5.424;2022-12-07T09:28:38;6.55;;;1.20;;
76693;SDS011;65625;52.136;5.424;2022-12-07T09:31:05;2.47;;;0.90;;
76693;SDS011;65625;52.136;5.424;2022-12-07T09:33:57;4.35;;;1.10;;
76693;SDS011;65625;52.136;5.424;2022-12-07T09:36:25;3.17;;;1.23;;
76693;SDS011;65625;52.136;5.424;2022-12-07T09:38:53;6.45;;;1.30;;
76693;SDS011;65625;52.136;5.424;2022-12-07T09:41:20;6.55;;;1.10;;
76693;SDS011;65625;52.136;5.424;2022-12-07T09:43:48;3.83;;;1.08;;
76693;SDS011;65625;52.136;5.424;2022-12-07T09:46:15;3.03;;;0.73;;
76693;SDS011;65625;52.136;5.424;2022-12-07T09:48:45;4.70;;;1.02;;
76693;SDS011;65625;52.136;5.424;2022-12-07T09:51:20;5.32;;;1.10;;
76693;SDS011;65625;52.136;5.424;2022-12-07T09:53:52;4.78;;;0.60;;
76693;SDS011;65625;52.136;5.424;2022-12-07T09:56:20;5.20;;;0.77;;
76693;SDS011;65625;52.136;5.424;2022-12-07T09:58:48;2.50;;;0.68;;
76693;SDS011;65625;52.136;5.424;2022-12-07T10:01:17;2.30;;;0.80;;
76693;SDS011;65625;52.136;5.424;2022-12-07T10:03:48;2.80;;;0.80;;
76693;SDS011;65625;52.136;5.424;2022-12-07T10:06:17;2.40;;;0.63;;
76693;SDS011;65625;52.136;5.424;2022-12-07T10:08:44;2.38;;;0.77;;
76693;SDS011;65625;52.136;5.424;2022-12-07T10:11:10;2.90;;;0.43;;
76693;SDS011;65625;52.136;5.424;2022-12-07T10:13:38;5.22;;;0.90;;
76693;SDS011;65625;52.136;5.424;2022-12-07T10:16:06;3.78;;;0.70;;
76693;SDS011;65625;52.136;5.424;2022-12-07T10:18:54;4.15;;;0.80;;
76693;SDS011;65625;52.136;5.424;2022-12-07T10:21:24;4.70;;;1.40;;
76693;SDS011;65625;52.136;5.424;2022-12-07T10:24:05;2.25;;;0.45;;
76693;SDS011;65625;52.136;5.424;2022-12-07T10:32:02;2.40;;;0.80;;
76693;SDS011;65625;52.136;5.424;2022-12-07T10:34:32;5.22;;;1.52;;
76693;SDS011;65625;52.136;5.424;2022-12-07T10:39:43;3.38;;;0.98;;
76693;SDS011;65625;52.136;5.424;2022-12-07T10:42:20;3.70;;;0.73;;
76693;SDS011;65625;52.136;5.424;2022-12-07T10:45:12;2.75;;;0.63;;
76693;SDS011;65625;52.136;5.424;2022-12-07T11:01:32;3.88;;;0.80;;
76693;SDS011;65625;52.136;5.424;2022-12-07T11:06:39;4.63;;;1.08;;
76693;SDS011;65625;52.136;5.424;2022-12-07T11:09:39;5.63;;;0.90;;
76693;SDS011;65625;52.136;5.424;2022-12-07T11:13:25;3.97;;;0.80;;
76693;SDS011;65625;52.136;5.424;2022-12-07T11:15:47;3.53;;;1.15;;
76693;SDS011;65625;52.136;5.424;2022-12-07T11:24:32;4.00;;;0.70;;
76693;SDS011;65625;52.136;5.424;2022-12-07T11:29:40;4.93;;;0.82;;
76693;SDS011;65625;52.136;5.424;2022-12-07T11:38:18;3.53;;;0.80;;
76693;SDS011;65625;52.136;5.424;2022-12-07T11:40:56;4.20;;;0.80;;
76693;SDS011;65625;52.136;5.424;2022-12-07T11:46:26;5.75;;;1.15;;
76693;SDS011;65625;52.136;5.424;2022-12-07T11:49:04;5.28;;;1.02;;
76693;SDS011;65625;52.136;5.424;2022-12-07T11:51:39;3.75;;;1.05;;
76693;SDS011;65625;52.136;5.424;2022-12-07T11:54:14;4.45;;;0.80;;
76693;SDS011;65625;52.136;5.424;2022-12-07T11:56:45;3.90;;;0.90;;
76693;SDS011;65625;52.136;5.424;2022-12-07T11:59:23;2.08;;;0.63;;
76693;SDS011;65625;52.136;5.424;2022-12-07T12:02:02;3.17;;;0.63;;
76693;SDS011;65625;52.136;5.424;2022-12-07T12:04:54;4.22;;;1.00;;
76693;SDS011;65625;52.136;5.424;2022-12-07T12:07:28;4.35;;;1.08;;
76693;SDS011;65625;52.136;5.424;2022-12-07T12:10:16;4.57;;;0.90;;
76693;SDS011;65625;52.136;5.424;2022-12-07T12:12:54;7.22;;;1.10;;
76693;SDS011;65625;52.136;5.424;2022-12-07T12:16:04;6.07;;;0.70;;
76693;SDS011;65625;52.136;5.424;2022-12-07T12:21:55;2.35;;;0.60;;
76693;SDS011;65625;52.136;5.424;2022-12-07T12:24:26;2.40;;;0.60;;
76693;SDS011;65625;52.136;5.424;2022-12-07T12:27:00;2.92;;;0.50;;
76693;SDS011;65625;52.136;5.424;2022-12-07T12:29:35;2.78;;;0.55;;
76693;SDS011;65625;52.136;5.424;2022-12-07T12:32:06;6.28;;;0.80;;
76693;SDS011;65625;52.136;5.424;2022-12-07T12:34:41;8.82;;;1.23;;
76693;SDS011;65625;52.136;5.424;2022-12-07T12:50:30;7.50;;;0.88;;
76693;SDS011;65625;52.136;5.424;2022-12-07T12:53:14;2.63;;;0.47;;
76693;SDS011;65625;52.136;5.424;2022-12-07T12:56:34;3.45;;;0.65;;
76693;SDS011;65625;52.136;5.424;2022-12-07T12:58:46;3.33;;;0.68;;
76693;SDS011;65625;52.136;5.424;2022-12-07T13:04:02;6.57;;;0.70;;
76693;SDS011;65625;52.136;5.424;2022-12-07T13:06:40;1.52;;;0.22;;
76693;SDS011;65625;52.136;5.424;2022-12-07T13:09:18;2.25;;;0.75;;
76693;SDS011;65625;52.136;5.424;2022-12-07T13:12:11;3.58;;;0.43;;
76693;SDS011;65625;52.136;5.424;2022-12-07T13:14:41;1.95;;;0.60;;
76693;SDS011;65625;52.136;5.424;2022-12-07T13:20:00;2.53;;;0.40;;
76693;SDS011;65625;52.136;5.424;2022-12-07T13:24:58;0.90;;;0.30;;
76693;SDS011;65625;52.136;5.424;2022-12-07T13:27:35;3.70;;;0.30;;
76693;SDS011;65625;52.136;5.424;2022-12-07T13:30:09;2.40;;;0.28;;
76693;SDS011;65625;52.136;5.424;2022-12-07T13:32:41;1.00;;;0.20;;
76693;SDS011;65625;52.136;5.424;2022-12-07T13:35:27;2.97;;;0.40;;
76693;SDS011;65625;52.136;5.424;2022-12-07T13:37:54;2.08;;;0.30;;
76693;SDS011;65625;52.136;5.424;2022-12-07T13:40:21;1.92;;;0.77;;
76693;SDS011;65625;52.136;5.424;2022-12-07T13:42:56;3.67;;;0.93;;
76693;SDS011;65625;52.136;5.424;2022-12-07T13:45:26;1.55;;;0.40;;
76693;SDS011;65625;52.136;5.424;2022-12-07T13:48:16;1.17;;;0.43;;
76693;SDS011;65625;52.136;5.424;2022-12-07T13:50:54;2.13;;;0.70;;
76693;SDS011;65625;52.136;5.424;2022-12-07T13:53:23;5.15;;;0.93;;
76693;SDS011;65625;52.136;5.424;2022-12-07T13:55:50;3.22;;;0.80;;
76693;SDS011;65625;52.136;5.424;2022-12-07T13:58:20;3.60;;;0.70;;
76693;SDS011;65625;52.136;5.424;2022-12-07T14:00:48;4.40;;;0.80;;
76693;SDS011;65625;52.136;5.424;2022-12-07T14:05:42;4.90;;;1.10;;
76693;SDS011;65625;52.136;5.424;2022-12-07T14:10:40;4.82;;;1.42;;
76693;SDS011;65625;52.136;5.424;2022-12-07T14:13:24;3.67;;;1.10;;
76693;SDS011;65625;52.136;5.424;2022-12-07T14:16:05;5.70;;;1.05;;
76693;SDS011;65625;52.136;5.424;2022-12-07T14:18:47;4.03;;;0.80;;
76693;SDS011;65625;52.136;5.424;2022-12-07T14:21:21;3.70;;;0.90;;
76693;SDS011;65625;52.136;5.424;2022-12-07T14:26:49;4.50;;;1.27;;
76693;SDS011;65625;52.136;5.424;2022-12-07T14:31:52;3.17;;;0.88;;
76693;SDS011;65625;52.136;5.424;2022-12-07T14:34:20;4.18;;;0.98;;
76693;SDS011;65625;52.136;5.424;2022-12-07T14:36:47;3.88;;;0.80;;
76693;SDS011;65625;52.136;5.424;2022-12-07T14:39:13;3.58;;;0.90;;
76693;SDS011;65625;52.136;5.424;2022-12-07T14:41:41;3.40;;;0.93;;
76693;SDS011;65625;52.136;5.424;2022-12-07T14:44:21;4.65;;;1.00;;
76693;SDS011;65625;52.136;5.424;2022-12-07T14:46:54;3.97;;;0.90;;
76693;SDS011;65625;52.136;5.424;2022-12-07T14:49:41;2.85;;;0.90;;
76693;SDS011;65625;52.136;5.424;2022-12-07T14:52:11;4.40;;;1.17;;
76693;SDS011;65625;52.136;5.424;2022-12-07T14:55:01;3.80;;;0.73;;
76693;SDS011;65625;52.136;5.424;2022-12-07T14:57:28;5.15;;;0.77;;
76693;SDS011;65625;52.136;5.424;2022-12-07T14:59:54;2.20;;;0.68;;
76693;SDS011;65625;52.136;5.424;2022-12-07T15:02:21;3.53;;;0.80;;
76693;SDS011;65625;52.136;5.424;2022-12-07T15:04:47;3.83;;;0.68;;
76693;SDS011;65625;52.136;5.424;2022-12-07T15:07:15;4.63;;;0.77;;
76693;SDS011;65625;52.136;5.424;2022-12-07T15:09:47;6.53;;;1.00;;
76693;SDS011;65625;52.136;5.424;2022-12-07T15:12:15;1.60;;;0.77;;
76693;SDS011;65625;52.136;5.424;2022-12-07T15:14:41;0.93;;;0.40;;
76693;SDS011;65625;52.136;5.424;2022-12-07T15:17:09;3.88;;;1.05;;
76693;SDS011;65625;52.136;5.424;2022-12-07T15:19:53;2.67;;;0.63;;
76693;SDS011;65625;52.136;5.424;2022-12-07T15:22:19;3.42;;;0.70;;
76693;SDS011;65625;52.136;5.424;2022-12-07T15:24:46;4.32;;;0.63;;
76693;SDS011;65625;52.136;5.424;2022-12-07T15:27:12;2.88;;;0.70;;
76693;SDS011;65625;52.136;5.424;2022-12-07T15:29:39;1.77;;;0.60;;
76693;SDS011;65625;52.136;5.424;2022-12-07T15:32:05;2.00;;;0.52;;
76693;SDS011;65625;52.136;5.424;2022-12-07T15:34:32;1.60;;;0.35;;
76693;SDS011;65625;52.136;5.424;2022-12-07T15:37:05;3.83;;;0.50;;
76693;SDS011;65625;52.136;5.424;2022-12-07T15:39:32;3.25;;;0.80;;
76693;SDS011;65625;52.136;5.424;2022-12-07T15:41:59;1.95;;;0.55;;
76693;SDS011;65625;52.136;5.424;2022-12-07T15:44:26;2.85;;;0.55;;
76693;SDS011;65625;52.136;5.424;2022-12-07T15:47:11;2.15;;;0.50;;
76693;SDS011;65625;52.136;5.424;2022-12-07T15:49:37;2.20;;;0.63;;
76693;SDS011;65625;52.136;5.424;2022-12-07T15:52:04;2.50;;;0.82;;
76693;SDS011;65625;52.136;5.424;2022-12-07T15:54:30;1.60;;;0.73;;
76693;SDS011;65625;52.136;5.424;2022-12-07T15:56:58;3.10;;;0.65;;
76693;SDS011;65625;52.136;5.424;2022-12-07T15:59:25;2.55;;;1.20;;
76693;SDS011;65625;52.136;5.424;2022-12-07T16:01:53;2.70;;;0.80;;
76693;SDS011;65625;52.136;5.424;2022-12-07T16:04:20;5.80;;;1.30;;
76693;SDS011;65625;52.136;5.424;2022-12-07T16:06:46;2.63;;;0.85;;
76693;SDS011;65625;52.136;5.424;2022-12-07T16:09:13;5.43;;;1.10;;
76693;SDS011;65625;52.136;5.424;2022-12-07T16:11:40;4.97;;;1.08;;
76693;SDS011;65625;52.136;5.424;2022-12-07T16:14:06;6.35;;;1.20;;
76693;SDS011;65625;52.136;5.424;2022-12-07T16:16:33;2.63;;;1.05;;
76693;SDS011;65625;52.136;5.424;2022-12-07T16:18:59;5.90;;;1.13;;
76693;SDS011;65625;52.136;5.424;2022-12-07T16:21:26;3.75;;;0.93;;
76693;SDS011;65625;52.136;5.424;2022-12-07T16:23:52;2.92;;;1.23;;
76693;SDS011;65625;52.136;5.424;2022-12-07T16:26:20;5.78;;;1.23;;
76693;SDS011;65625;52.136;5.424;2022-12-07T16:28:48;3.47;;;1.50;;
76693;SDS011;65625;52.136;5.424;2022-12-07T16:31:17;3.33;;;1.30;;
76693;SDS011;65625;52.136;5.424;2022-12-07T16:36:12;4.95;;;1.10;;
76693;SDS011;65625;52.136;5.424;2022-12-07T16:39:02;3.83;;;1.08;;
76693;SDS011;65625;52.136;5.424;2022-12-07T16:41:29;6.72;;;1.15;;
76693;SDS011;65625;52.136;5.424;2022-12-07T16:43:56;6.45;;;1.65;;
76693;SDS011;65625;52.136;5.424;2022-12-07T16:46:23;4.13;;;1.40;;
76693;SDS011;65625;52.136;5.424;2022-12-07T16:48:49;6.53;;;1.80;;
76693;SDS011;65625;52.136;5.424;2022-12-07T16:51:16;2.95;;;1.58;;
76693;SDS011;65625;52.136;5.424;2022-12-07T16:53:42;5.07;;;2.00;;